Time;durP1;ratioP1;P1;durP2;ratioP2;P2;SDS_P1;SDS_P2;PMS_P1;PMS_P2;Temp;Humidity;BMP_temperature;BMP_pressure;BME280_temperature;BME280_humidity;BME280_pressure;Samples;Min_cycle;Max_cycle;Signal;HPM_P1;HPM_P2
2023/05/22 00:01:43;;;;;;;9.80;8.88;;;;;;;21.68;54.23;99760.72;5050228;28;20110;-76
2023/05/22 00:04:12;;;;;;;11.20;8.30;;;;;;;21.67;54.26;99753.69;5032541;28;20058;-76
2023/05/22 00:06:41;;;;;;;10.60;8.63;;;;;;;21.65;55.07;99760.22;5049184;28;20057;-77
2023/05/22 00:09:08;;;;;;;8.65;7.75;;;;;;;21.64;54.69;99754.00;5032476;28;20057;-76
2023/05/22 00:11:35;;;;;;;10.48;8.93;;;;;;;21.63;54.57;99759.53;5049918;28;20064;-77
2023/05/22 00:14:02;;;;;;;10.55;8.95;;;;;;;21.59;54.82;99761.69;5050018;28;20065;-79
2023/05/22 00:16:29;;;;;;;10.10;9.05;;;;;;;21.56;54.69;99764.66;5049808;28;20118;-75
2023/05/22 00:18:56;;;;;;;9.98;8.93;;;;;;;21.52;54.61;99771.38;5050177;28;20057;-77
2023/05/22 00:21:23;;;;;;;11.95;8.45;;;;;;;21.50;54.91;99774.19;5032075;28;20505;-76
2023/05/22 00:23:50;;;;;;;10.75;8.60;;;;;;;21.47;55.11;99763.81;5049784;28;20052;-78
2023/05/22 00:26:16;;;;;;;9.35;8.35;;;;;;;21.46;55.42;99768.31;5049635;28;20064;-76
2023/05/22 00:28:43;;;;;;;10.60;8.75;;;;;;;21.47;55.52;99761.13;5049961;28;20057;-76
2023/05/22 00:31:10;;;;;;;9.25;8.30;;;;;;;21.46;55.64;99773.66;5049807;28;20057;-76
2023/05/22 00:33:37;;;;;;;9.60;8.60;;;;;;;21.44;55.70;99759.59;5049885;28;20087;-77
2023/05/22 00:36:05;;;;;;;10.65;8.85;;;;;;;21.42;55.96;99750.06;5049792;28;20053;-76
2023/05/22 00:38:33;;;;;;;13.63;9.63;;;;;;;21.39;56.23;99745.88;5031634;28;20064;-77
2023/05/22 00:41:01;;;;;;;12.30;9.00;;;;;;;21.37;56.40;99744.34;5050553;28;20060;-79
2023/05/22 00:43:28;;;;;;;13.50;10.10;;;;;;;21.35;56.53;99745.31;5032012;28;20107;-78
2023/05/22 00:45:55;;;;;;;13.85;10.60;;;;;;;21.35;56.79;99752.53;5031045;28;20106;-79
2023/05/22 00:48:22;;;;;;;11.48;9.82;;;;;;;21.33;57.00;99741.13;5049135;28;20087;-79
2023/05/22 00:50:50;;;;;;;9.90;8.15;;;;;;;21.30;56.97;99742.28;5053695;28;20464;-79
2023/05/22 00:53:22;;;;;;;13.05;9.57;;;;;;;21.27;57.80;99737.22;5053583;28;20110;-78
2023/05/22 00:55:51;;;;;;;10.02;9.02;;;;;;;21.28;57.09;99730.91;5053294;28;20569;-78
2023/05/22 00:58:18;;;;;;;11.48;9.93;;;;;;;21.26;57.24;99732.06;5035506;28;20413;-78
2023/05/22 01:00:47;;;;;;;11.23;9.77;;;;;;;21.24;57.45;99737.56;5053577;28;20064;-79
2023/05/22 01:03:15;;;;;;;11.95;10.73;;;;;;;21.21;57.43;99737.88;5035599;28;20060;-79
2023/05/22 01:05:42;;;;;;;12.32;10.23;;;;;;;21.18;57.69;99744.38;5035354;28;20072;-79
2023/05/22 01:08:09;;;;;;;11.30;9.95;;;;;;;21.15;57.53;99743.88;5053012;28;20107;-78
2023/05/22 01:10:37;;;;;;;9.85;8.88;;;;;;;21.08;57.58;99743.63;5035993;28;20068;-78
2023/05/22 01:13:49;;;;;;;10.57;8.82;;;;;;;20.95;58.04;99750.25;5053382;28;20162;-79
2023/05/22 01:16:36;;;;;;;10.82;7.90;;;;;;;20.86;57.74;99740.44;5052791;28;20114;-78
2023/05/22 01:19:29;;;;;;;8.05;7.25;;;;;;;20.79;56.86;99736.72;5035270;28;20053;-78
2023/05/22 01:22:03;;;;;;;8.13;6.63;;;;;;;20.73;56.84;99723.94;5035849;28;20057;-77
2023/05/22 01:24:41;;;;;;;8.20;6.60;;;;;;;20.69;56.37;99720.75;5052931;28;20107;-79
2023/05/22 01:27:14;;;;;;;7.80;6.97;;;;;;;20.61;56.91;99726.88;5052686;28;20056;-78
2023/05/22 01:29:51;;;;;;;7.85;6.72;;;;;;;20.53;56.95;99724.13;5035282;28;20127;-78
2023/05/22 01:32:21;;;;;;;9.50;6.38;;;;;;;20.51;56.89;99726.09;5035539;28;20481;-78
2023/05/22 01:34:53;;;;;;;8.55;6.03;;;;;;;20.44;56.41;99737.41;5052386;28;20057;-77
2023/05/22 01:37:21;;;;;;;9.93;5.75;;;;;;;20.38;56.34;99727.34;5034876;28;20490;-80
2023/05/22 01:39:50;;;;;;;7.10;5.38;;;;;;;20.30;57.03;99727.28;5051553;28;20087;-78
2023/05/22 01:42:18;;;;;;;6.78;5.60;;;;;;;20.21;56.66;99720.13;5053001;28;20515;-79
2023/05/22 01:44:44;;;;;;;6.85;5.65;;;;;;;20.12;57.07;99709.38;5052222;28;20485;-76
2023/05/22 01:47:11;;;;;;;6.95;5.78;;;;;;;20.03;57.29;99704.91;5032527;28;20068;-77
2023/05/22 01:49:38;;;;;;;6.47;5.72;;;;;;;19.93;57.24;99703.13;5033136;28;20084;-79
2023/05/22 01:52:35;;;;;;;6.25;5.55;;;;;;;19.79;58.10;99695.63;5032587;28;20081;-78
2023/05/22 01:55:26;;;;;;;6.32;5.45;;;;;;;19.73;58.27;99686.38;5033903;28;20065;-78
2023/05/22 01:58:01;;;;;;;8.25;5.38;;;;;;;19.67;57.84;99679.78;5034917;28;20057;-78
2023/05/22 02:00:30;;;;;;;6.70;5.88;;;;;;;19.64;57.44;99672.09;5051846;28;20056;-78
2023/05/22 02:03:05;;;;;;;8.02;5.95;;;;;;;19.59;57.74;99673.53;5034909;28;20100;-79
2023/05/22 02:05:35;;;;;;;6.88;6.18;;;;;;;19.57;57.56;99671.00;5052200;28;20060;-78
2023/05/22 02:08:03;;;;;;;7.57;5.75;;;;;;;19.57;57.95;99671.00;5033896;28;20048;-78
2023/05/22 02:10:32;;;;;;;7.43;5.63;;;;;;;19.56;58.08;99664.00;5052480;28;20053;-78
2023/05/22 02:15:25;;;;;;;7.13;6.30;;;;;;;19.60;57.92;99668.06;5200848;22;20422;-77
2023/05/22 02:17:52;;;;;;;7.82;7.03;;;;;;;19.62;58.09;99657.22;5030375;28;20814;-78
2023/05/22 02:20:18;;;;;;;9.60;6.28;;;;;;;19.63;58.09;99662.38;5013797;28;20560;-78
2023/05/22 02:22:46;;;;;;;10.00;6.50;;;;;;;19.64;58.24;99661.44;5031740;28;20057;-77
2023/05/22 02:25:15;;;;;;;7.00;6.30;;;;;;;19.65;58.34;99659.56;5026233;28;20057;-77
2023/05/22 02:27:45;;;;;;;9.73;6.50;;;;;;;19.66;58.61;99662.09;5012089;28;20616;-76
2023/05/22 02:30:13;;;;;;;6.82;6.20;;;;;;;19.66;58.50;99648.75;4995170;28;20049;-76
2023/05/22 02:32:40;;;;;;;8.07;6.55;;;;;;;19.67;58.51;99647.75;5012334;28;20141;-77
2023/05/22 02:35:07;;;;;;;8.20;6.82;;;;;;;19.69;58.57;99644.13;5012261;28;20415;-76
2023/05/22 02:37:34;;;;;;;10.40;6.53;;;;;;;19.67;58.12;99642.41;4994669;28;20088;-77
2023/05/22 02:40:01;;;;;;;7.00;6.20;;;;;;;19.69;58.25;99641.44;5012244;28;20049;-76
2023/05/22 02:42:28;;;;;;;8.00;6.53;;;;;;;19.70;58.43;99635.09;5011951;28;20486;-76
2023/05/22 02:44:54;;;;;;;7.05;5.97;;;;;;;19.71;58.03;99631.44;4994716;28;20120;-76
2023/05/22 02:47:21;;;;;;;6.53;5.90;;;;;;;19.71;58.21;99634.97;5012024;28;20060;-76
2023/05/22 02:49:48;;;;;;;10.27;6.75;;;;;;;19.72;58.47;99636.63;5012159;28;20085;-76
2023/05/22 02:52:15;;;;;;;8.88;6.50;;;;;;;19.72;58.71;99633.97;4994384;28;20092;-76
2023/05/22 02:54:41;;;;;;;8.07;6.15;;;;;;;19.72;58.50;99631.28;5011789;28;20100;-77
2023/05/22 02:57:08;;;;;;;7.30;6.40;;;;;;;19.73;58.56;99637.47;5011558;28;20114;-76
2023/05/22 02:59:35;;;;;;;8.70;6.85;;;;;;;19.72;58.40;99641.13;5011839;28;20054;-77
2023/05/22 03:02:02;;;;;;;7.47;6.43;;;;;;;19.73;58.64;99640.16;5008450;28;20141;-76
2023/05/22 03:04:29;;;;;;;8.15;6.97;;;;;;;19.74;58.35;99644.50;5031395;28;20072;-76
2023/05/22 03:06:55;;;;;;;9.10;6.30;;;;;;;19.74;58.38;99649.84;5031169;28;20061;-76
2023/05/22 03:09:22;;;;;;;7.72;6.93;;;;;;;19.74;58.84;99649.84;5031166;28;20699;-76
2023/05/22 03:11:49;;;;;;;7.72;6.28;;;;;;;19.72;58.92;99646.47;5031511;28;20057;-76
2023/05/22 03:14:15;;;;;;;8.27;6.82;;;;;;;19.70;58.70;99659.13;5031325;28;20099;-77
2023/05/22 03:16:42;;;;;;;9.98;7.10;;;;;;;19.68;59.17;99661.94;5013521;28;20049;-77
2023/05/22 03:19:13;;;;;;;7.63;6.70;;;;;;;19.64;59.91;99657.91;5031294;28;20075;-76
2023/05/22 03:21:42;;;;;;;8.70;7.05;;;;;;;19.63;59.45;99654.38;5013730;28;20077;-76
2023/05/22 03:24:11;;;;;;;8.45;7.07;;;;;;;19.59;59.65;99650.31;5013820;28;20065;-76
2023/05/22 03:26:38;;;;;;;7.97;7.10;;;;;;;19.57;59.68;99657.66;5013460;28;20053;-77
2023/05/22 03:29:05;;;;;;;7.85;6.65;;;;;;;19.55;59.80;99659.63;5013573;28;20461;-77
2023/05/22 03:31:32;;;;;;;8.18;7.30;;;;;;;19.51;60.12;99666.28;5031267;28;20073;-76
2023/05/22 03:33:59;;;;;;;8.00;7.20;;;;;;;19.49;60.46;99652.22;5030845;28;20060;-76
2023/05/22 03:36:26;;;;;;;7.88;7.00;;;;;;;19.49;60.53;99641.53;5030715;28;20819;-76
2023/05/22 03:38:53;;;;;;;10.00;7.60;;;;;;;19.50;60.65;99643.22;5030782;28;20057;-77
2023/05/22 03:41:19;;;;;;;9.68;7.85;;;;;;;19.51;60.92;99634.25;5013400;28;20088;-76
2023/05/22 03:43:46;;;;;;;7.57;6.78;;;;;;;19.52;61.01;99634.06;5030728;28;20512;-76
2023/05/22 03:46:12;;;;;;;8.80;6.15;;;;;;;19.56;60.73;99628.44;5030694;28;20208;-76
2023/05/22 03:48:39;;;;;;;10.18;7.80;;;;;;;19.57;61.27;99625.63;5030460;28;20061;-77
2023/05/22 03:51:07;;;;;;;8.35;7.25;;;;;;;19.59;60.98;99623.63;5030449;28;20625;-76
2023/05/22 03:53:33;;;;;;;9.77;7.60;;;;;;;19.61;60.99;99621.66;5030739;28;20092;-77
2023/05/22 03:56:00;;;;;;;7.53;6.68;;;;;;;19.63;61.35;99618.84;5030565;28;20092;-76
2023/05/22 03:58:27;;;;;;;11.85;7.53;;;;;;;19.64;61.17;99621.38;5030647;28;20060;-77
2023/05/22 04:00:57;;;;;;;8.73;7.82;;;;;;;19.64;61.48;99625.84;5013010;28;20057;-77
2023/05/22 04:03:24;;;;;;;8.88;7.97;;;;;;;19.63;61.10;99622.34;5030602;28;20140;-77
2023/05/22 04:05:50;;;;;;;8.77;7.32;;;;;;;19.64;61.38;99613.34;5030501;28;20096;-76
2023/05/22 04:08:17;;;;;;;8.68;7.38;;;;;;;19.64;61.51;99601.84;5030230;28;20494;-76
2023/05/22 04:10:45;;;;;;;12.18;8.13;;;;;;;19.63;61.50;99584.13;5030272;28;20502;-76
2023/05/22 04:13:12;;;;;;;9.77;8.00;;;;;;;19.63;61.66;99563.59;5030353;28;20053;-76
2023/05/22 04:15:45;;;;;;;8.85;7.95;;;;;;;19.66;61.69;99554.44;5012525;28;20494;-77
2023/05/22 04:18:13;;;;;;;9.05;8.15;;;;;;;19.69;61.24;99558.66;5012795;28;20147;-76
2023/05/22 04:20:39;;;;;;;9.82;7.82;;;;;;;19.73;61.52;99568.06;5030451;28;20053;-76
2023/05/22 04:23:06;;;;;;;10.15;8.93;;;;;;;19.75;61.05;99569.56;5030431;28;20066;-76
2023/05/22 04:25:33;;;;;;;9.48;8.32;;;;;;;19.77;61.49;99572.06;5015813;28;20061;-77
2023/05/22 04:28:02;;;;;;;9.82;8.82;;;;;;;19.78;61.27;99576.44;5034398;28;20136;-77
2023/05/22 04:30:32;;;;;;;10.15;8.80;;;;;;;19.77;61.57;99572.91;5034500;28;20057;-77
2023/05/22 04:33:00;;;;;;;11.90;8.98;;;;;;;19.78;61.79;99579.13;5034429;28;20068;-77
2023/05/22 04:35:28;;;;;;;9.43;8.43;;;;;;;19.77;61.38;99586.28;5034162;28;20128;-76
2023/05/22 04:37:56;;;;;;;12.57;9.27;;;;;;;19.75;61.72;99588.28;5034177;28;20123;-76
2023/05/22 04:40:25;;;;;;;11.38;9.73;;;;;;;19.74;61.95;99586.56;5016472;28;20057;-76
2023/05/22 04:42:53;;;;;;;13.05;9.43;;;;;;;19.73;61.81;99581.41;5034020;28;20149;-76
2023/05/22 04:45:24;;;;;;;12.38;9.52;;;;;;;19.72;61.96;99585.03;5034214;28;20065;-76
2023/05/22 04:47:51;;;;;;;10.23;8.93;;;;;;;19.72;62.27;99593.06;5034040;28;20061;-77
2023/05/22 04:50:19;;;;;;;12.65;9.13;;;;;;;19.71;62.11;99589.56;5033888;28;20053;-76
2023/05/22 04:52:46;;;;;;;12.52;9.52;;;;;;;19.72;61.97;99590.38;5033830;28;20136;-77
2023/05/22 04:55:13;;;;;;;10.20;9.10;;;;;;;19.72;62.25;99585.91;5033618;28;20057;-76
2023/05/22 04:57:43;;;;;;;10.68;8.98;;;;;;;19.73;62.33;99600.09;5033522;28;20057;-77
2023/05/22 05:00:11;;;;;;;10.68;9.27;;;;;;;19.74;62.48;99591.91;5034154;28;20053;-76
2023/05/22 05:02:38;;;;;;;12.20;10.00;;;;;;;19.76;62.51;99599.78;5016063;28;20460;-76
2023/05/22 05:05:05;;;;;;;11.20;10.00;;;;;;;19.79;62.72;99596.81;5033569;28;20668;-76
2023/05/22 05:07:31;;;;;;;11.10;10.00;;;;;;;19.81;62.79;99596.66;5033461;28;20057;-76
2023/05/22 05:09:58;;;;;;;11.85;10.55;;;;;;;19.82;62.71;99599.19;5033602;28;20057;-76
2023/05/22 05:12:24;;;;;;;12.70;9.90;;;;;;;19.84;62.32;99593.69;5033441;28;20144;-76
2023/05/22 05:14:51;;;;;;;12.07;10.48;;;;;;;19.84;62.74;99591.84;5033203;28;20406;-78
2023/05/22 05:17:18;;;;;;;12.15;10.95;;;;;;;19.85;62.85;99590.84;5033356;28;20053;-77
2023/05/22 05:19:44;;;;;;;13.05;11.40;;;;;;;19.86;63.07;99595.22;5033552;28;20053;-76
2023/05/22 05:22:10;;;;;;;12.38;10.98;;;;;;;19.86;63.07;99592.56;5033277;28;20083;-77
2023/05/22 05:24:37;;;;;;;13.15;11.68;;;;;;;19.87;62.95;99586.22;5033472;28;20069;-76
2023/05/22 05:27:04;;;;;;;13.00;11.57;;;;;;;19.88;62.96;99592.38;5032845;28;20593;-78
2023/05/22 05:29:30;;;;;;;13.20;11.55;;;;;;;19.88;62.98;99601.22;5033271;28;20438;-76
2023/05/22 05:31:57;;;;;;;13.57;12.13;;;;;;;19.88;63.00;99595.88;5032935;28;20063;-77
2023/05/22 05:34:23;;;;;;;16.00;12.30;;;;;;;19.88;63.23;99592.38;5033009;28;20053;-77
2023/05/22 05:36:51;;;;;;;17.52;13.13;;;;;;;19.88;63.27;99595.88;5031610;28;20053;-76
2023/05/22 05:39:17;;;;;;;14.27;12.57;;;;;;;19.89;63.22;99594.06;5033181;28;20104;-76
2023/05/22 05:41:44;;;;;;;16.20;12.18;;;;;;;19.90;63.50;99603.75;5015542;28;20061;-76
2023/05/22 05:44:10;;;;;;;14.77;13.13;;;;;;;19.91;63.42;99594.75;5033133;28;20164;-76
2023/05/22 05:46:37;;;;;;;16.50;14.00;;;;;;;19.93;63.63;99596.28;5032843;28;20061;-77
2023/05/22 05:49:11;;;;;;;15.77;13.55;;;;;;;19.95;64.59;99604.13;5032913;28;20064;-77
2023/05/22 05:51:37;;;;;;;18.23;14.20;;;;;;;19.99;63.73;99604.69;5032855;28;20057;-77
2023/05/22 05:54:04;;;;;;;15.85;13.80;;;;;;;20.02;63.96;99609.75;5032677;28;20049;-77
2023/05/22 05:56:30;;;;;;;15.88;14.15;;;;;;;20.07;63.95;99606.63;5032847;28;20574;-77
2023/05/22 05:58:57;;;;;;;18.80;14.02;;;;;;;20.11;64.25;99608.81;5032636;28;20498;-77
2023/05/22 06:01:25;;;;;;;15.75;14.13;;;;;;;20.17;64.37;99612.72;5032765;28;20057;-78
2023/05/22 06:03:52;;;;;;;15.52;13.82;;;;;;;20.24;64.34;99612.94;5032717;28;20053;-77
2023/05/22 06:06:19;;;;;;;15.88;14.02;;;;;;;20.28;64.30;99603.63;5014913;28;20457;-77
2023/05/22 06:08:46;;;;;;;15.50;13.88;;;;;;;20.32;64.26;99607.66;5032683;28;20136;-76
2023/05/22 06:11:13;;;;;;;15.60;14.00;;;;;;;20.37;64.02;99613.38;5032565;28;20422;-77
2023/05/22 06:13:40;;;;;;;16.92;14.43;;;;;;;20.42;64.07;99612.91;5032530;28;20683;-79
2023/05/22 06:16:06;;;;;;;16.52;14.70;;;;;;;20.47;64.16;99612.44;5032172;28;20084;-78
2023/05/22 06:18:33;;;;;;;17.58;14.00;;;;;;;20.52;64.39;99612.84;5014954;28;20076;-77
2023/05/22 06:20:59;;;;;;;15.07;13.55;;;;;;;20.57;64.38;99607.84;5032273;28;20049;-77
2023/05/22 06:23:26;;;;;;;15.75;14.00;;;;;;;20.63;64.35;99612.56;5032464;28;20053;-77
2023/05/22 06:25:53;;;;;;;17.33;14.10;;;;;;;20.67;63.96;99611.25;5014609;28;20057;-77
2023/05/22 06:28:20;;;;;;;18.35;14.27;;;;;;;20.74;64.08;99613.31;5032345;28;20058;-78
2023/05/22 06:30:46;;;;;;;15.98;13.82;;;;;;;20.79;64.21;99613.66;5032097;28;20091;-77
2023/05/22 06:33:13;;;;;;;16.45;13.63;;;;;;;20.86;64.28;99620.03;5032148;28;20160;-77
2023/05/22 06:35:40;;;;;;;17.33;14.68;;;;;;;20.93;64.26;99613.09;5013819;28;20064;-77
2023/05/22 06:38:07;;;;;;;15.57;13.45;;;;;;;21.03;63.99;99614.81;5032149;28;20049;-77
2023/05/22 06:40:34;;;;;;;14.88;13.32;;;;;;;21.11;63.31;99614.03;5031887;28;20081;-78
2023/05/22 06:43:00;;;;;;;15.13;13.60;;;;;;;21.19;63.95;99628.28;5032110;28;20140;-77
2023/05/22 06:45:27;;;;;;;17.58;14.25;;;;;;;21.28;63.81;99626.50;5031600;28;20513;-78
2023/05/22 06:47:53;;;;;;;16.00;13.32;;;;;;;21.34;63.52;99627.66;5031410;28;20065;-78
2023/05/22 06:50:21;;;;;;;16.88;14.10;;;;;;;21.41;63.68;99627.91;5031640;28;20116;-78
2023/05/22 06:52:48;;;;;;;16.05;14.43;;;;;;;21.47;63.22;99627.22;5013967;28;20151;-77
2023/05/22 06:55:14;;;;;;;15.73;14.07;;;;;;;21.54;63.31;99622.06;5013608;28;20051;-78
2023/05/22 06:57:41;;;;;;;16.38;13.93;;;;;;;21.59;63.60;99631.28;5031732;28;20144;-77
2023/05/22 07:00:10;;;;;;;15.65;14.05;;;;;;;21.66;63.73;99634.16;5014008;28;20244;-77
2023/05/22 07:02:37;;;;;;;15.18;13.70;;;;;;;21.76;63.59;99630.53;5031455;28;20061;-78
2023/05/22 07:05:04;;;;;;;14.00;12.55;;;;;;;21.84;63.09;99634.06;5013810;28;20065;-78
2023/05/22 07:07:31;;;;;;;14.85;13.15;;;;;;;21.91;63.08;99639.63;5031531;28;20059;-77
2023/05/22 07:09:57;;;;;;;17.00;14.18;;;;;;;21.99;63.23;99634.25;5030669;28;20067;-77
2023/05/22 07:12:27;;;;;;;15.30;13.63;;;;;;;22.08;62.88;99639.59;5031057;28;20141;-78
2023/05/22 07:14:53;;;;;;;15.00;12.93;;;;;;;22.17;62.70;99637.78;5031343;28;20408;-78
2023/05/22 07:17:20;;;;;;;16.70;13.45;;;;;;;22.23;62.36;99635.28;5031071;28;20140;-77
2023/05/22 07:19:47;;;;;;;16.92;13.07;;;;;;;22.30;62.26;99634.59;5031366;28;20053;-78
2023/05/22 07:22:14;;;;;;;15.52;13.93;;;;;;;22.36;62.35;99637.44;5013654;28;20049;-77
2023/05/22 07:24:41;;;;;;;14.00;12.63;;;;;;;22.44;62.53;99638.47;5031305;28;20056;-78
2023/05/22 07:27:08;;;;;;;15.20;13.38;;;;;;;22.51;61.97;99637.59;5030543;28;20642;-78
2023/05/22 07:29:35;;;;;;;16.77;12.32;;;;;;;22.59;61.90;99642.19;5029739;28;20152;-78
2023/05/22 07:32:01;;;;;;;15.13;12.20;;;;;;;22.68;61.73;99648.34;5029885;28;20060;-79
2023/05/22 07:34:31;;;;;;;14.65;12.32;;;;;;;22.74;61.31;99642.34;5031063;28;20096;-78
2023/05/22 07:37:07;;;;;;;14.52;12.93;;;;;;;22.80;61.47;99648.84;5031032;28;20061;-78
2023/05/22 07:39:34;;;;;;;13.65;12.20;;;;;;;22.89;61.29;99647.84;5031083;28;20049;-77
2023/05/22 07:42:01;;;;;;;14.27;12.68;;;;;;;22.97;60.66;99641.59;5030487;28;20099;-78
2023/05/22 07:44:28;;;;;;;13.88;11.95;;;;;;;23.02;60.89;99647.28;5031107;28;20148;-77
2023/05/22 07:46:54;;;;;;;13.68;12.02;;;;;;;23.09;60.35;99652.81;5013122;28;20794;-78
2023/05/22 07:49:22;;;;;;;13.27;11.73;;;;;;;23.15;60.14;99654.81;5013231;28;20057;-78
2023/05/22 07:51:49;;;;;;;15.93;12.57;;;;;;;23.19;59.63;99655.31;5030557;28;20069;-78
2023/05/22 07:54:17;;;;;;;13.40;12.00;;;;;;;23.24;59.77;99652.94;5031140;28;20488;-78
2023/05/22 07:56:44;;;;;;;13.48;11.75;;;;;;;23.32;59.92;99662.78;5030228;28;20060;-78
2023/05/22 07:59:11;;;;;;;13.82;12.45;;;;;;;23.36;59.57;99655.28;5030001;28;20053;-79
2023/05/22 08:01:39;;;;;;;17.35;12.70;;;;;;;23.41;59.75;99659.09;5030578;28;20061;-77
2023/05/22 08:04:05;;;;;;;18.02;13.10;;;;;;;23.48;59.85;99658.41;5030430;28;20064;-78
2023/05/22 08:06:35;;;;;;;14.73;12.75;;;;;;;23.53;59.70;99667.63;5012821;28;20054;-79
2023/05/22 08:09:03;;;;;;;13.82;12.55;;;;;;;23.61;59.42;99674.81;5012905;28;20057;-78
2023/05/22 08:11:30;;;;;;;16.02;13.75;;;;;;;23.68;59.78;99665.03;5030355;28;20053;-77
2023/05/22 08:13:56;;;;;;;16.50;12.95;;;;;;;23.76;59.81;99666.00;5012897;28;20061;-78
2023/05/22 08:16:23;;;;;;;15.10;12.32;;;;;;;23.84;59.92;99668.63;5070713;23;20064;-77
2023/05/22 08:18:50;;;;;;;16.50;13.25;;;;;;;23.94;60.28;99673.78;5009974;28;20133;-77
2023/05/22 08:21:17;;;;;;;15.15;13.65;;;;;;;24.03;59.33;99672.72;5010687;28;20140;-77
2023/05/22 08:23:43;;;;;;;15.35;13.07;;;;;;;24.15;59.98;99672.34;5010507;28;20058;-76
2023/05/22 08:26:10;;;;;;;15.90;13.30;;;;;;;24.25;59.01;99672.13;5010454;28;20062;-76
2023/05/22 08:28:40;;;;;;;14.27;12.63;;;;;;;24.33;58.83;99678.25;5010477;28;20061;-78
2023/05/22 08:31:07;;;;;;;13.50;12.10;;;;;;;24.42;58.52;99675.50;5010530;28;20435;-77
2023/05/22 08:33:34;;;;;;;15.23;13.65;;;;;;;24.50;58.74;99674.59;5010245;28;20054;-77
2023/05/22 08:36:00;;;;;;;16.25;14.13;;;;;;;24.56;58.65;99671.19;5010659;28;20058;-77
2023/05/22 08:38:27;;;;;;;16.13;14.43;;;;;;;24.63;58.75;99666.72;5010370;28;20108;-76
2023/05/22 08:40:54;;;;;;;16.63;14.85;;;;;;;24.69;58.60;99671.41;5008184;28;20061;-77
2023/05/22 08:43:21;;;;;;;16.17;14.32;;;;;;;24.75;58.34;99677.06;5010359;28;20050;-76
2023/05/22 08:45:56;;;;;;;15.13;13.60;;;;;;;24.79;57.84;99676.53;5010337;28;20057;-77
2023/05/22 08:48:24;;;;;;;16.85;15.23;;;;;;;24.87;57.88;99667.56;5010364;28;20054;-77
2023/05/22 08:50:56;;;;;;;16.75;14.85;;;;;;;24.90;57.54;99664.50;5010478;28;20050;-77
2023/05/22 08:53:24;;;;;;;16.77;14.70;;;;;;;24.96;57.68;99665.59;5010279;28;20073;-76
2023/05/22 08:55:52;;;;;;;16.20;14.52;;;;;;;24.98;57.42;99663.59;5007478;28;20058;-76
2023/05/22 08:58:20;;;;;;;15.07;13.57;;;;;;;25.02;57.64;99670.28;5009930;28;20061;-76
2023/05/22 09:00:47;;;;;;;16.52;14.75;;;;;;;25.04;57.30;99662.84;5010078;28;20561;-77
2023/05/22 09:03:14;;;;;;;15.80;14.25;;;;;;;25.06;57.30;99655.41;5010435;28;20057;-77
2023/05/22 09:05:41;;;;;;;16.30;14.70;;;;;;;25.11;57.44;99658.38;5009979;28;20089;-76
2023/05/22 09:08:08;;;;;;;16.10;14.45;;;;;;;25.17;57.31;99656.81;5010172;28;20054;-77
2023/05/22 09:10:46;;;;;;;16.27;14.60;;;;;;;25.23;57.69;99658.75;5011888;28;20454;-77
2023/05/22 09:13:24;;;;;;;16.80;15.20;;;;;;;25.27;57.59;99663.78;5014027;28;20148;-76
2023/05/22 09:15:50;;;;;;;16.90;15.20;;;;;;;25.35;56.87;99661.78;5014168;28;20053;-77
2023/05/22 09:18:17;;;;;;;20.42;16.13;;;;;;;25.41;56.87;99654.00;5033339;28;20049;-77
2023/05/22 09:20:44;;;;;;;17.00;15.30;;;;;;;25.48;57.02;99657.59;5033460;28;20049;-76
2023/05/22 09:23:13;;;;;;;17.42;15.43;;;;;;;25.53;57.34;99657.88;5033438;28;20057;-76
2023/05/22 09:25:41;;;;;;;17.50;15.73;;;;;;;25.60;57.49;99661.53;5033290;28;20057;-77
2023/05/22 09:28:10;;;;;;;19.35;15.50;;;;;;;25.67;57.50;99655.41;5033567;28;20060;-77
2023/05/22 09:30:36;;;;;;;16.60;14.90;;;;;;;25.76;56.85;99660.47;5015617;28;20088;-76
2023/05/22 09:33:05;;;;;;;18.20;16.00;;;;;;;25.83;56.90;99663.22;5033103;28;20103;-76
2023/05/22 09:35:34;;;;;;;18.77;16.88;;;;;;;25.88;56.46;99659.97;5033150;28;20059;-77
2023/05/22 09:38:01;;;;;;;18.10;16.23;;;;;;;25.92;56.16;99663.97;5015473;28;20065;-76
2023/05/22 09:40:28;;;;;;;18.50;16.63;;;;;;;25.95;56.06;99658.19;5033223;28;20068;-77
2023/05/22 09:42:54;;;;;;;18.05;16.15;;;;;;;25.99;56.40;99658.63;5033265;28;20053;-77
2023/05/22 09:45:23;;;;;;;17.73;15.82;;;;;;;26.03;56.14;99659.91;5032931;28;20123;-77
2023/05/22 09:47:49;;;;;;;17.67;15.80;;;;;;;26.07;55.88;99663.91;5032810;28;20088;-76
2023/05/22 09:50:17;;;;;;;17.50;15.70;;;;;;;26.11;56.40;99659.81;5033181;28;20485;-77
2023/05/22 09:52:45;;;;;;;19.45;16.20;;;;;;;26.18;56.33;99667.09;5032634;28;20152;-77
2023/05/22 09:55:13;;;;;;;17.02;14.32;;;;;;;26.24;56.74;99663.66;5033269;28;20065;-76
2023/05/22 09:57:44;;;;;;;15.98;14.38;;;;;;;26.33;55.94;99667.06;5032730;28;20053;-76
2023/05/22 10:00:14;;;;;;;17.38;15.57;;;;;;;26.45;56.41;99679.03;5015211;28;20805;-77
2023/05/22 10:02:44;;;;;;;17.80;16.00;;;;;;;26.57;55.88;99673.91;5015161;28;20648;-77
2023/05/22 10:05:20;;;;;;;17.98;16.13;;;;;;;26.72;56.57;99667.63;5032646;28;20053;-76
2023/05/22 10:07:49;;;;;;;17.20;15.40;;;;;;;26.87;55.67;99664.81;5015130;28;20482;-77
2023/05/22 10:10:19;;;;;;;16.27;14.77;;;;;;;26.99;55.32;99674.03;5032760;28;20160;-77
2023/05/22 10:12:59;;;;;;;17.33;15.55;;;;;;;27.11;55.60;99673.50;5032820;28;20072;-77
2023/05/22 10:15:26;;;;;;;15.35;13.73;;;;;;;27.29;56.28;99667.59;5032468;28;20104;-77
2023/05/22 10:17:53;;;;;;;16.33;14.45;;;;;;;27.49;55.72;99672.22;5032448;28;20108;-79
2023/05/22 10:20:28;;;;;;;16.30;14.70;;;;;;;27.64;55.44;99664.84;5015769;28;20060;-77
2023/05/22 10:22:55;;;;;;;15.30;13.85;;;;;;;27.86;55.12;99667.41;5031517;28;20578;-77
2023/05/22 10:25:22;;;;;;;16.45;14.68;;;;;;;28.02;54.87;99658.06;5032024;28;20057;-77
2023/05/22 10:27:52;;;;;;;15.77;14.18;;;;;;;28.20;54.15;99660.19;5031937;28;20057;-77
2023/05/22 10:30:28;;;;;;;14.75;13.23;;;;;;;28.32;52.57;99659.59;5031896;28;20057;-77
2023/05/22 10:33:07;;;;;;;13.98;12.57;;;;;;;28.42;51.01;99654.63;5032100;28;20053;-77
2023/05/22 10:36:03;;;;;;;14.05;12.68;;;;;;;28.43;51.67;99647.31;5031865;28;20053;-77
2023/05/22 10:39:11;;;;;;;14.48;13.02;;;;;;;28.48;52.12;99647.53;5014274;28;20493;-77
2023/05/22 10:41:39;;;;;;;12.95;11.65;;;;;;;28.61;52.12;99639.41;4991136;28;20058;-77
2023/05/22 10:44:06;;;;;;;13.88;12.55;;;;;;;28.73;52.60;99636.88;5031899;28;20057;-77
2023/05/22 10:46:35;;;;;;;15.35;12.70;;;;;;;28.92;52.49;99639.78;5031789;28;20053;-76
2023/05/22 10:49:02;;;;;;;13.50;11.85;;;;;;;29.20;52.99;99627.00;5031916;28;20053;-78
2023/05/22 10:51:31;;;;;;;14.98;12.57;;;;;;;29.57;51.81;99629.16;5031741;28;20136;-76
2023/05/22 10:54:01;;;;;;;13.02;10.95;;;;;;;29.99;51.87;99628.69;5032407;28;20139;-77
2023/05/22 10:56:34;;;;;;;13.02;11.15;;;;;;;30.47;49.42;99634.63;5031642;28;20049;-78
2023/05/22 10:59:06;;;;;;;11.27;10.23;;;;;;;30.93;48.67;99636.09;5031657;28;20654;-77
2023/05/22 11:01:36;;;;;;;11.30;10.25;;;;;;;31.32;46.83;99638.59;5031403;28;20060;-77
2023/05/22 11:04:05;;;;;;;10.77;9.77;;;;;;;31.56;46.04;99629.72;5031726;28;20119;-77
2023/05/22 11:06:41;;;;;;;12.05;9.80;;;;;;;31.61;45.02;99629.84;5031328;28;20053;-78
2023/05/22 11:09:28;;;;;;;11.63;10.57;;;;;;;31.61;46.40;99629.03;5031716;28;20095;-78
2023/05/22 11:12:23;;;;;;;12.30;10.30;;;;;;;31.71;46.88;99621.16;5031096;28;20637;-78
2023/05/22 11:14:57;;;;;;;10.80;9.68;;;;;;;31.94;45.31;99625.88;5031294;28;20502;-77
2023/05/22 11:17:31;;;;;;;10.18;9.25;;;;;;;32.20;45.01;99622.94;5031270;28;20498;-77
2023/05/22 11:20:06;;;;;;;10.23;9.30;;;;;;;32.50;43.97;99624.78;5013648;28;20053;-77
2023/05/22 11:22:38;;;;;;;10.73;9.48;;;;;;;32.82;44.20;99624.41;5031285;28;20056;-77
2023/05/22 11:25:16;;;;;;;10.47;9.37;;;;;;;33.13;43.76;99625.09;5013507;28;20069;-77
2023/05/22 11:27:47;;;;;;;10.15;8.45;;;;;;;33.45;44.71;99621.06;5031069;28;20350;-77
2023/05/22 11:30:15;;;;;;;11.52;10.07;;;;;;;33.74;44.24;99623.81;5031174;28;20084;-78
2023/05/22 11:32:43;;;;;;;10.50;9.50;;;;;;;34.00;43.06;99616.06;5013413;28;20056;-77
2023/05/22 11:35:15;;;;;;;10.35;9.35;;;;;;;34.25;42.36;99620.34;5030178;28;20168;-77